Time;durP1;ratioP1;P1;durP2;ratioP2;P2;SDS_P1;SDS_P2;PMS_P1;PMS_P2;Temp;Humidity;BMP_temperature;BMP_pressure;BME280_temperature;BME280_humidity;BME280_pressure;Samples;Min_cycle;Max_cycle;Signal;HPM_P1;HPM_P2
2023/05/27 00:00:12;;;;;;;;;6.00;6.00;;;;;;;;5038862;28;9014;-81
2023/05/27 00:02:40;;;;;;;;;5.67;5.00;;;;;;;;5032610;28;9002;-83
2023/05/27 00:05:09;;;;;;;;;4.00;4.00;;;;;;;;5024460;28;8951;-82
2023/05/27 00:07:36;;;;;;;;;5.00;5.00;;;;;;;;5034614;28;8949;-81
2023/05/27 00:10:05;;;;;;;;;8.00;4.33;;;;;;;;5037652;28;9075;-81
2023/05/27 00:12:32;;;;;;;;;4.67;4.67;;;;;;;;5038217;28;8988;-81
2023/05/27 00:14:59;;;;;;;;;4.67;4.00;;;;;;;;5038769;28;9199;-82
2023/05/27 00:17:27;;;;;;;;;5.00;5.00;;;;;;;;5039819;28;9366;-81
2023/05/27 00:19:55;;;;;;;;;3.25;3.25;;;;;;;;5029466;28;9317;-81
2023/05/27 00:22:23;;;;;;;;;5.25;3.75;;;;;;;;5021057;28;9559;-81
2023/05/27 00:24:51;;;;;;;;;5.25;4.75;;;;;;;;5043670;28;9541;-81
2023/05/27 00:27:18;;;;;;;;;8.50;6.75;;;;;;;;5029816;28;9625;-81
2023/05/27 00:29:45;;;;;;;;;7.00;5.00;;;;;;;;5037630;28;10463;-81
2023/05/27 00:32:13;;;;;;;;;7.25;7.25;;;;;;;;5031806;28;9767;-82
2023/05/27 00:34:40;;;;;;;;;6.75;6.75;;;;;;;;5031986;28;9839;-83
2023/05/27 00:37:10;;;;;;;;;7.00;6.50;;;;;;;;5030448;28;9838;-82
2023/05/27 00:39:38;;;;;;;;;4.75;4.75;;;;;;;;5031047;28;9948;-81
2023/05/27 00:42:07;;;;;;;;;6.00;6.00;;;;;;;;5029694;28;9810;-82
2023/05/27 00:44:34;;;;;;;;;9.00;6.00;;;;;;;;5031276;28;9802;-81
2023/05/27 00:47:01;;;;;;;;;10.50;6.00;;;;;;;;5028863;28;9736;-82
2023/05/27 00:49:29;;;;;;;;;5.50;5.25;;;;;;;;5029676;28;9567;-82
2023/05/27 00:51:56;;;;;;;;;6.67;6.00;;;;;;;;5029892;28;9526;-81
2023/05/27 00:54:27;;;;;;;;;3.67;3.00;;;;;;;;5030235;28;9347;-81
2023/05/27 00:56:56;;;;;;;;;8.00;6.00;;;;;;;;5042627;28;9343;-81
2023/05/27 00:59:25;;;;;;;;;9.00;6.75;;;;;;;;5051696;28;9395;-80
2023/05/27 01:01:52;;;;;;;;;11.50;7.00;;;;;;;;5051994;28;9447;-81
2023/05/27 01:04:20;;;;;;;;;6.25;6.25;;;;;;;;5054384;28;9840;-81
2023/05/27 01:06:57;;;;;;;;;5.25;5.25;;;;;;;;5062857;28;9980;-81
2023/05/27 01:09:28;;;;;;;;;8.25;7.00;;;;;;;;5052592;28;9936;-81
2023/05/27 01:12:14;;;;;;;;;3.50;3.50;;;;;;;;5054906;28;10580;-82
2023/05/27 01:14:46;;;;;;;;;5.25;5.25;;;;;;;;5063791;28;9598;-81
2023/05/27 01:17:15;;;;;;;;;7.33;5.00;;;;;;;;5057244;28;9678;-81
2023/05/27 01:19:45;;;;;;;;;7.00;7.00;;;;;;;;5049249;28;10548;-81
2023/05/27 01:22:14;;;;;;;;;8.00;4.75;;;;;;;;5054407;28;9480;-82
2023/05/27 01:24:43;;;;;;;;;3.25;2.50;;;;;;;;5051010;28;9492;-81
2023/05/27 01:27:11;;;;;;;;;4.75;4.75;;;;;;;;5051123;28;9547;-81
2023/05/27 01:29:40;;;;;;;;;6.25;6.25;;;;;;;;5048986;28;9507;-81
2023/05/27 01:32:12;;;;;;;;;5.00;5.00;;;;;;;;5048835;28;9508;-81
2023/05/27 01:34:42;;;;;;;;;7.67;7.33;;;;;;;;5045830;28;9516;-81
2023/05/27 01:37:12;;;;;;;;;6.00;6.00;;;;;;;;5044721;28;9486;-81
2023/05/27 01:39:42;;;;;;;;;4.00;4.00;;;;;;;;5046935;28;9353;-82
2023/05/27 01:42:10;;;;;;;;;6.67;6.00;;;;;;;;5048394;28;9418;-80
2023/05/27 01:44:38;;;;;;;;;6.33;5.00;;;;;;;;5048320;28;10145;-82
2023/05/27 01:47:08;;;;;;;;;6.75;6.75;;;;;;;;5047926;28;10207;-82
2023/05/27 01:49:36;;;;;;;;;5.25;5.25;;;;;;;;5043763;28;9508;-82
2023/05/27 01:52:04;;;;;;;;;7.25;7.25;;;;;;;;5048241;28;9480;-81
2023/05/27 01:54:32;;;;;;;;;6.00;4.00;;;;;;;;5043743;28;9523;-81
2023/05/27 01:57:01;;;;;;;;;8.50;5.75;;;;;;;;5056167;28;9471;-82
2023/05/27 01:59:28;;;;;;;;;7.00;6.00;;;;;;;;5058523;28;9377;-81
2023/05/27 02:01:55;;;;;;;;;5.00;4.00;;;;;;;;5051360;28;9692;-83
2023/05/27 02:04:23;;;;;;;;;7.75;5.00;;;;;;;;5051507;28;9529;-82
2023/05/27 02:06:51;;;;;;;;;8.00;6.75;;;;;;;;5046007;28;10426;-81
2023/05/27 02:09:20;;;;;;;;;8.00;6.00;;;;;;;;5050095;28;9466;-81
2023/05/27 02:11:50;;;;;;;;;8.00;8.00;;;;;;;;5037810;28;9649;-81
2023/05/27 02:14:19;;;;;;;;;7.25;6.75;;;;;;;;5046934;28;9531;-81
2023/05/27 02:16:47;;;;;;;;;9.25;5.75;;;;;;;;5055911;28;9644;-82
2023/05/27 02:19:15;;;;;;;;;8.75;6.25;;;;;;;;5048751;28;9532;-82
2023/05/27 02:21:42;;;;;;;;;7.75;5.75;;;;;;;;5029077;28;9632;-81
2023/05/27 02:24:09;;;;;;;;;6.25;5.00;;;;;;;;5044613;28;9593;-83
2023/05/27 02:26:36;;;;;;;;;5.75;5.75;;;;;;;;5048239;28;9516;-83
2023/05/27 02:29:04;;;;;;;;;7.75;6.75;;;;;;;;5053310;28;9526;-82
2023/05/27 02:31:33;;;;;;;;;9.00;6.25;;;;;;;;5040298;28;9639;-83
2023/05/27 02:34:00;;;;;;;;;6.75;5.25;;;;;;;;5050268;28;9466;-82
2023/05/27 02:36:27;;;;;;;;;8.00;5.75;;;;;;;;5049397;28;9486;-82
2023/05/27 02:38:55;;;;;;;;;5.00;5.00;;;;;;;;5052774;28;9605;-83
2023/05/27 02:41:22;;;;;;;;;7.25;6.00;;;;;;;;5048311;28;9612;-82
2023/05/27 02:43:49;;;;;;;;;7.25;6.00;;;;;;;;5031264;28;9585;-82
2023/05/27 02:46:17;;;;;;;;;8.00;6.00;;;;;;;;5055490;28;9768;-82
2023/05/27 02:48:55;;;;;;;;;6.00;6.00;;;;;;;;5058246;28;9803;-82
2023/05/27 02:51:23;;;;;;;;;9.00;7.00;;;;;;;;5056993;28;9683;-82
2023/05/27 02:53:51;;;;;;;;;8.00;6.50;;;;;;;;5053723;28;10564;-83
2023/05/27 02:56:19;;;;;;;;;5.25;5.00;;;;;;;;5065467;28;9685;-84
2023/05/27 02:58:46;;;;;;;;;4.50;3.50;;;;;;;;5062463;28;9682;-83
2023/05/27 03:01:13;;;;;;;;;7.00;5.00;;;;;;;;5062509;28;9557;-83
2023/05/27 03:03:41;;;;;;;;;6.00;5.00;;;;;;;;5054476;28;9624;-82
2023/05/27 03:06:10;;;;;;;;;10.75;5.00;;;;;;;;5055503;28;9603;-82
2023/05/27 03:08:37;;;;;;;;;6.00;6.00;;;;;;;;5054081;28;9710;-82
2023/05/27 03:11:05;;;;;;;;;5.00;4.00;;;;;;;;5056346;28;9855;-82
2023/05/27 03:13:34;;;;;;;;;9.25;6.00;;;;;;;;5047507;28;9620;-82
2023/05/27 03:16:02;;;;;;;;;7.75;5.00;;;;;;;;5052031;28;10447;-83
2023/05/27 03:18:29;;;;;;;;;5.50;5.00;;;;;;;;5056990;28;9772;-82
2023/05/27 03:20:57;;;;;;;;;6.75;6.00;;;;;;;;5056990;28;9614;-83
2023/05/27 03:23:26;;;;;;;;;7.00;5.75;;;;;;;;5061900;28;9795;-82
2023/05/27 03:25:53;;;;;;;;;6.00;6.00;;;;;;;;5051118;28;9643;-83
2023/05/27 03:28:20;;;;;;;;;7.00;7.00;;;;;;;;5050927;28;9799;-82
2023/05/27 03:30:48;;;;;;;;;8.75;6.00;;;;;;;;5050677;28;9868;-82
2023/05/27 03:33:16;;;;;;;;;8.00;6.25;;;;;;;;5052203;28;9764;-82
2023/05/27 03:35:43;;;;;;;;;7.25;6.00;;;;;;;;5051714;28;9605;-83
2023/05/27 03:38:11;;;;;;;;;4.75;4.75;;;;;;;;5051280;28;9785;-82
2023/05/27 03:40:39;;;;;;;;;8.25;5.75;;;;;;;;5052272;28;9544;-82
2023/05/27 03:43:07;;;;;;;;;6.00;6.00;;;;;;;;5038431;28;10412;-82
2023/05/27 03:45:34;;;;;;;;;6.50;6.50;;;;;;;;5051591;28;9613;-82
2023/05/27 03:48:02;;;;;;;;;7.00;6.00;;;;;;;;5052161;28;9609;-83
2023/05/27 03:50:29;;;;;;;;;12.00;6.50;;;;;;;;5051205;28;9705;-82
2023/05/27 03:52:56;;;;;;;;;6.75;5.00;;;;;;;;5051172;28;9608;-84
2023/05/27 03:55:24;;;;;;;;;8.50;6.75;;;;;;;;5052197;28;9789;-83
2023/05/27 03:57:54;;;;;;;;;11.00;7.75;;;;;;;;5053896;28;9756;-82
2023/05/27 04:00:22;;;;;;;;;8.00;5.25;;;;;;;;5049914;28;9921;-82
2023/05/27 04:02:49;;;;;;;;;7.25;6.50;;;;;;;;5049379;28;9726;-82
2023/05/27 04:05:18;;;;;;;;;7.50;7.00;;;;;;;;5048851;28;9972;-82
2023/05/27 04:07:46;;;;;;;;;9.25;7.50;;;;;;;;5049706;28;9676;-81
2023/05/27 04:10:13;;;;;;;;;6.00;6.00;;;;;;;;5052540;28;9766;-82
2023/05/27 04:12:41;;;;;;;;;8.50;6.50;;;;;;;;5054264;28;9746;-81
2023/05/27 04:15:11;;;;;;;;;7.00;7.00;;;;;;;;5048343;28;9773;-83
2023/05/27 04:17:38;;;;;;;;;8.00;8.00;;;;;;;;5034747;28;9799;-82
2023/05/27 04:20:13;;;;;;;;;4.25;4.25;;;;;;;;5050040;28;9921;-84
2023/05/27 04:22:40;;;;;;;;;6.50;5.25;;;;;;;;5052403;28;9709;-83
2023/05/27 04:25:08;;;;;;;;;7.00;7.00;;;;;;;;5059961;28;9781;-83
2023/05/27 04:27:36;;;;;;;;;8.25;7.50;;;;;;;;5056810;28;9806;-84
2023/05/27 04:30:06;;;;;;;;;9.00;7.00;;;;;;;;5048260;28;9883;-83
2023/05/27 04:32:37;;;;;;;;;8.00;6.00;;;;;;;;5048116;28;9756;-82
2023/05/27 04:35:07;;;;;;;;;7.25;6.75;;;;;;;;5040801;28;9924;-84
2023/05/27 04:37:37;;;;;;;;;11.00;8.00;;;;;;;;5051484;28;9955;-83
2023/05/27 04:40:06;;;;;;;;;10.00;8.00;;;;;;;;5050220;28;9797;-82
2023/05/27 04:42:36;;;;;;;;;12.50;8.00;;;;;;;;5050890;28;9781;-83
2023/05/27 04:45:06;;;;;;;;;7.75;7.25;;;;;;;;5051030;28;9935;-81
2023/05/27 04:47:38;;;;;;;;;10.25;9.00;;;;;;;;5050616;28;9957;-82
2023/05/27 04:50:07;;;;;;;;;9.25;9.25;;;;;;;;5049627;28;9833;-82
2023/05/27 04:52:40;;;;;;;;;7.25;7.00;;;;;;;;5051763;28;10029;-82
2023/05/27 04:55:09;;;;;;;;;2.00;2.00;;;;;;;;5049829;28;9684;-82
2023/05/27 04:57:40;;;;;;;;;11.75;9.25;;;;;;;;5050176;28;9767;-82
2023/05/27 05:00:33;;;;;;;;;8.25;7.50;;;;;;;;5048687;28;9789;-82
2023/05/27 05:03:07;;;;;;;;;9.25;4.25;;;;;;;;5039843;28;9773;-83
2023/05/27 05:05:34;;;;;;;;;9.00;8.75;;;;;;;;5049928;28;9911;-79
2023/05/27 05:08:01;;;;;;;;;11.50;9.00;;;;;;;;5050924;28;9787;-80
2023/05/27 05:10:30;;;;;;;;;10.00;8.25;;;;;;;;5050596;28;9743;-78
2023/05/27 05:12:59;;;;;;;;;9.75;8.00;;;;;;;;5052673;28;9813;-81
2023/05/27 05:15:27;;;;;;;;;8.75;7.75;;;;;;;;5055042;28;9875;-82
2023/05/27 05:17:54;;;;;;;;;7.00;7.00;;;;;;;;5047513;28;9902;-81
2023/05/27 05:20:23;;;;;;;;;7.50;7.00;;;;;;;;5048103;28;9708;-80
2023/05/27 05:22:50;;;;;;;;;7.75;6.75;;;;;;;;5066818;28;9608;-81
2023/05/27 05:25:18;;;;;;;;;12.00;8.00;;;;;;;;5055740;28;9535;-81
2023/05/27 05:27:45;;;;;;;;;10.25;8.25;;;;;;;;5052297;28;10687;-82
2023/05/27 05:30:13;;;;;;;;;10.75;8.75;;;;;;;;5047975;28;9538;-79
2023/05/27 05:32:40;;;;;;;;;10.00;8.50;;;;;;;;5047828;28;9691;-80
2023/05/27 05:35:08;;;;;;;;;8.50;8.00;;;;;;;;5047329;28;9544;-80
2023/05/27 05:37:37;;;;;;;;;9.25;7.75;;;;;;;;5047818;28;9552;-83
2023/05/27 05:40:06;;;;;;;;;7.75;7.75;;;;;;;;5048564;28;9493;-82
2023/05/27 05:42:33;;;;;;;;;8.00;8.00;;;;;;;;5048888;28;9547;-84
2023/05/27 05:45:00;;;;;;;;;9.25;8.25;;;;;;;;5046060;28;9503;-83
2023/05/27 05:47:31;;;;;;;;;10.00;8.00;;;;;;;;5048087;28;9528;-82
2023/05/27 05:49:58;;;;;;;;;7.75;5.75;;;;;;;;5047181;28;9544;-79
2023/05/27 05:52:26;;;;;;;;;9.00;7.75;;;;;;;;5044535;28;9604;-76
2023/05/27 05:54:54;;;;;;;;;6.00;6.00;;;;;;;;5048289;28;10378;-77
2023/05/27 05:57:22;;;;;;;;;8.00;7.50;;;;;;;;5053578;28;9556;-77
2023/05/27 05:59:49;;;;;;;;;9.25;9.25;;;;;;;;5054813;28;9540;-79
2023/05/27 06:02:17;;;;;;;;;10.75;10.75;;;;;;;;5049769;28;9643;-79
2023/05/27 06:04:45;;;;;;;;;8.50;6.75;;;;;;;;5036476;28;9610;-80
2023/05/27 06:07:12;;;;;;;;;7.75;7.50;;;;;;;;5040738;28;9561;-78
2023/05/27 06:09:39;;;;;;;;;7.75;6.75;;;;;;;;5045656;28;9549;-78
2023/05/27 06:12:09;;;;;;;;;6.67;5.00;;;;;;;;5047789;28;9516;-78
2023/05/27 06:14:36;;;;;;;;;6.67;5.67;;;;;;;;5046680;28;9419;-82
2023/05/27 06:17:06;;;;;;;;;7.33;7.00;;;;;;;;5053829;28;9429;-79
2023/05/27 06:19:33;;;;;;;;;9.67;8.00;;;;;;;;5049510;28;10182;-79
2023/05/27 06:22:01;;;;;;;;;9.00;8.25;;;;;;;;5047999;28;9383;-77
2023/05/27 06:24:28;;;;;;;;;8.33;7.00;;;;;;;;5054341;28;9489;-78
2023/05/27 06:26:55;;;;;;;;;8.25;8.25;;;;;;;;5048671;28;9495;-77
2023/05/27 06:29:24;;;;;;;;;10.00;7.33;;;;;;;;5049778;28;9589;-80
2023/05/27 06:31:51;;;;;;;;;10.67;9.00;;;;;;;;5057457;28;9449;-76
2023/05/27 06:34:18;;;;;;;;;8.33;8.00;;;;;;;;5056472;28;9326;-76
2023/05/27 06:36:50;;;;;;;;;10.75;8.50;;;;;;;;5054791;28;9404;-79
2023/05/27 06:39:17;;;;;;;;;10.00;10.00;;;;;;;;5054373;28;9564;-78
2023/05/27 06:41:44;;;;;;;;;8.00;7.50;;;;;;;;5059412;28;9533;-78
2023/05/27 06:44:12;;;;;;;;;10.50;10.50;;;;;;;;5059422;28;9462;-77
2023/05/27 06:46:41;;;;;;;;;3.25;3.00;;;;;;;;5053598;28;10024;-77
2023/05/27 06:49:08;;;;;;;;;9.25;9.25;;;;;;;;5050738;28;9500;-77
2023/05/27 06:51:36;;;;;;;;;9.25;7.75;;;;;;;;5061335;28;9393;-81
2023/05/27 06:54:04;;;;;;;;;9.00;7.00;;;;;;;;5063207;28;9405;-80
2023/05/27 06:56:33;;;;;;;;;6.00;4.67;;;;;;;;5055159;28;9366;-80
2023/05/27 06:59:01;;;;;;;;;11.33;8.33;;;;;;;;5052745;28;10076;-79
2023/05/27 07:01:28;;;;;;;;;7.00;7.00;;;;;;;;5052161;28;9954;-79
2023/05/27 07:03:57;;;;;;;;;13.00;9.33;;;;;;;;5051149;28;9176;-80
2023/05/27 07:06:24;;;;;;;;;8.00;6.67;;;;;;;;5043746;28;8995;-85
2023/05/27 07:08:54;;;;;;;;;7.00;7.00;;;;;;;;5053492;28;9072;-82
2023/05/27 07:11:22;;;;;;;;;8.00;7.67;;;;;;;;5050723;28;9220;-79
2023/05/27 07:13:51;;;;;;;;;9.50;8.50;;;;;;;;5044590;28;8989;-82
2023/05/27 07:16:19;;;;;;;;;6.75;6.75;;;;;;;;5055357;28;8845;-83
2023/05/27 07:18:46;;;;;;;;;6.00;6.00;;;;;;;;5054413;28;8872;-88
2023/05/27 07:21:15;;;;;;;;;11.00;6.00;;;;;;;;5059355;28;8830;-81
2023/05/27 07:23:42;;;;;;;;;9.75;7.75;;;;;;;;5070360;28;9005;-80
2023/05/27 07:26:09;;;;;;;;;10.00;10.00;;;;;;;;5067708;28;8920;-81
2023/05/27 07:28:37;;;;;;;;;11.25;10.50;;;;;;;;5068347;28;8889;-82
2023/05/27 07:31:07;;;;;;;;;9.25;6.50;;;;;;;;5066147;28;8770;-82
2023/05/27 07:33:35;;;;;;;;;12.25;10.00;;;;;;;;5066555;28;8854;-82
2023/05/27 07:36:02;;;;;;;;;10.50;10.50;;;;;;;;5065818;28;8854;-81
2023/05/27 07:38:32;;;;;;;;;7.00;5.75;;;;;;;;5066261;28;8862;-81
2023/05/27 07:40:59;;;;;;;;;9.50;7.50;;;;;;;;5066669;28;8862;-80
2023/05/27 07:43:27;;;;;;;;;9.75;9.00;;;;;;;;5064734;28;8885;-82
2023/05/27 07:45:55;;;;;;;;;11.75;10.25;;;;;;;;5058245;28;9029;-81
2023/05/27 07:48:22;;;;;;;;;6.00;4.50;;;;;;;;5065380;28;8862;-81
2023/05/27 07:50:49;;;;;;;;;7.25;7.25;;;;;;;;5069034;28;8919;-81
2023/05/27 07:53:17;;;;;;;;;8.00;8.00;;;;;;;;5067298;28;8871;-81
2023/05/27 07:55:46;;;;;;;;;10.50;9.00;;;;;;;;5069541;28;8868;-81
2023/05/27 07:58:14;;;;;;;;;5.50;3.75;;;;;;;;5065124;28;8848;-81
2023/05/27 08:00:41;;;;;;;;;10.00;7.00;;;;;;;;5068049;28;8805;-81
2023/05/27 08:03:11;;;;;;;;;9.00;7.50;;;;;;;;5063476;28;8832;-81
2023/05/27 08:05:41;;;;;;;;;8.00;7.00;;;;;;;;5069807;28;8834;-81
2023/05/27 08:08:12;;;;;;;;;6.50;6.50;;;;;;;;5056435;28;8826;-81
2023/05/27 08:10:41;;;;;;;;;9.75;8.00;;;;;;;;5069990;28;8839;-81
2023/05/27 08:13:13;;;;;;;;;9.00;9.00;;;;;;;;5041845;28;8877;-80
2023/05/27 08:15:43;;;;;;;;;6.00;4.75;;;;;;;;5053098;28;8867;-79
2023/05/27 08:18:10;;;;;;;;;7.50;7.50;;;;;;;;5055515;28;8844;-81
2023/05/27 08:20:38;;;;;;;;;13.25;8.00;;;;;;;;5054068;28;8864;-83
2023/05/27 08:23:07;;;;;;;;;7.50;7.50;;;;;;;;5058233;28;8849;-83
2023/05/27 08:25:35;;;;;;;;;8.25;6.75;;;;;;;;5052782;28;8941;-82
2023/05/27 08:28:02;;;;;;;;;8.50;8.50;;;;;;;;5049592;28;8864;-83
2023/05/27 08:30:31;;;;;;;;;7.50;6.75;;;;;;;;5059232;28;8823;-82
2023/05/27 08:32:59;;;;;;;;;7.75;7.75;;;;;;;;5047094;28;8871;-83
2023/05/27 08:35:28;;;;;;;;;7.00;5.50;;;;;;;;5050173;28;8914;-83
2023/05/27 08:37:55;;;;;;;;;9.00;7.75;;;;;;;;5047196;28;8875;-83
2023/05/27 08:40:23;;;;;;;;;8.25;6.00;;;;;;;;5050360;28;8992;-83
2023/05/27 08:42:51;;;;;;;;;10.00;8.50;;;;;;;;5050940;28;9598;-83
2023/05/27 08:45:22;;;;;;;;;9.50;8.00;;;;;;;;5049927;28;8903;-84
2023/05/27 08:47:52;;;;;;;;;6.75;6.75;;;;;;;;5050343;28;8890;-84
2023/05/27 08:50:20;;;;;;;;;7.00;6.25;;;;;;;;5040820;28;8844;-84
2023/05/27 08:52:53;;;;;;;;;8.50;6.50;;;;;;;;5050266;28;9701;-84
2023/05/27 08:55:22;;;;;;;;;8.00;8.00;;;;;;;;5049767;28;8836;-83
2023/05/27 08:57:54;;;;;;;;;5.00;5.00;;;;;;;;5049594;28;8867;-83
2023/05/27 09:00:25;;;;;;;;;5.00;5.00;;;;;;;;5031521;28;8836;-83
2023/05/27 09:02:59;;;;;;;;;12.00;9.00;;;;;;;;5049505;28;9580;-84
2023/05/27 09:05:26;;;;;;;;;9.00;8.25;;;;;;;;5049117;28;8851;-81
2023/05/27 09:07:56;;;;;;;;;10.75;6.25;;;;;;;;5049976;28;8836;-84
2023/05/27 09:10:24;;;;;;;;;9.00;7.75;;;;;;;;5050023;28;8872;-82
2023/05/27 09:12:51;;;;;;;;;6.20;6.20;;;;;;;;5049922;28;8852;-85
2023/05/27 09:15:19;;;;;;;;;12.00;8.75;;;;;;;;5049854;28;8941;-88
2023/05/27 09:17:47;;;;;;;;;6.80;6.80;;;;;;;;5050414;28;8994;-88
2023/05/27 09:20:34;;;;;;;;;9.40;7.40;;;;;;;;5040129;28;8874;-88
2023/05/27 09:23:05;;;;;;;;;10.20;8.60;;;;;;;;5052999;28;8864;-86
2023/05/27 09:25:32;;;;;;;;;7.20;7.20;;;;;;;;5041403;28;9639;-83
2023/05/27 09:27:59;;;;;;;;;8.80;8.20;;;;;;;;5056791;28;8913;-83
2023/05/27 09:30:27;;;;;;;;;6.00;6.00;;;;;;;;5055990;28;8736;-83
2023/05/27 09:33:02;;;;;;;;;9.80;6.80;;;;;;;;5054183;28;8854;-84
2023/05/27 09:35:31;;;;;;;;;6.60;6.60;;;;;;;;5051474;28;8862;-86
2023/05/27 09:38:06;;;;;;;;;9.60;7.80;;;;;;;;5053302;28;8913;-83
2023/05/27 09:40:37;;;;;;;;;7.00;7.00;;;;;;;;5031219;28;8856;-83
2023/05/27 09:43:05;;;;;;;;;6.80;5.20;;;;;;;;5052924;28;8899;-85
2023/05/27 09:45:34;;;;;;;;;7.00;7.00;;;;;;;;5056948;28;8855;-84
2023/05/27 09:48:03;;;;;;;;;10.40;7.80;;;;;;;;5045199;28;8854;-82
2023/05/27 09:50:32;;;;;;;;;12.00;8.20;;;;;;;;5068644;28;8854;-83
2023/05/27 09:53:00;;;;;;;;;5.80;5.40;;;;;;;;5072329;28;8976;-84
2023/05/27 09:55:28;;;;;;;;;10.00;8.00;;;;;;;;5056694;28;9622;-88
2023/05/27 09:57:55;;;;;;;;;6.00;4.20;;;;;;;;5054229;28;8834;-87
2023/05/27 10:00:23;;;;;;;;;4.60;4.60;;;;;;;;5065773;28;8868;-87
2023/05/27 10:02:51;;;;;;;;;11.80;8.60;;;;;;;;5067051;28;8850;-86
2023/05/27 10:05:20;;;;;;;;;6.00;6.00;;;;;;;;5056301;28;8933;-86
2023/05/27 10:07:49;;;;;;;;;10.00;8.60;;;;;;;;5053882;28;8846;-84
2023/05/27 10:10:18;;;;;;;;;7.80;7.80;;;;;;;;5066301;28;8961;-81
2023/05/27 10:12:46;;;;;;;;;7.20;7.00;;;;;;;;5050655;28;8890;-83
2023/05/27 10:15:23;;;;;;;;;9.60;7.80;;;;;;;;5047945;28;8826;-85
2023/05/27 10:17:53;;;;;;;;;9.00;7.60;;;;;;;;5057529;28;8972;-86
2023/05/27 10:20:27;;;;;;;;;6.00;5.00;;;;;;;;5047922;28;8863;-83
2023/05/27 10:23:10;;;;;;;;;8.60;8.20;;;;;;;;5041585;28;8833;-84
2023/05/27 10:25:38;;;;;;;;;8.80;6.40;;;;;;;;5057400;28;8852;-81
2023/05/27 10:28:05;;;;;;;;;7.00;7.00;;;;;;;;5048531;28;9540;-82
2023/05/27 10:30:44;;;;;;;;;7.80;7.60;;;;;;;;5051975;28;8760;-83
2023/05/27 10:33:12;;;;;;;;;11.20;9.00;;;;;;;;5050441;28;8874;-84
2023/05/27 10:35:42;;;;;;;;;8.80;7.80;;;;;;;;5046093;28;8863;-85
2023/05/27 10:38:18;;;;;;;;;6.20;6.20;;;;;;;;5049109;28;9676;-84
2023/05/27 10:40:47;;;;;;;;;9.40;8.00;;;;;;;;5042316;28;8864;-87
2023/05/27 10:43:18;;;;;;;;;9.00;7.00;;;;;;;;5046353;28;8849;-83
2023/05/27 10:45:46;;;;;;;;;8.40;7.80;;;;;;;;5052349;28;8836;-82
2023/05/27 10:48:18;;;;;;;;;7.40;7.40;;;;;;;;5048026;28;8953;-86
2023/05/27 10:50:52;;;;;;;;;8.20;6.80;;;;;;;;5049717;28;8877;-85
2023/05/27 10:53:24;;;;;;;;;11.80;11.80;;;;;;;;5040100;28;8841;-82
2023/05/27 10:55:51;;;;;;;;;9.60;8.20;;;;;;;;5031247;28;8867;-83
2023/05/27 10:58:19;;;;;;;;;6.80;5.40;;;;;;;;5048929;28;8846;-82
2023/05/27 11:00:50;;;;;;;;;9.40;8.60;;;;;;;;5048963;28;9190;-83
2023/05/27 11:03:21;;;;;;;;;10.80;9.20;;;;;;;;5041854;28;9564;-82
2023/05/27 11:05:58;;;;;;;;;8.20;8.20;;;;;;;;5049823;28;8860;-82
2023/05/27 11:08:27;;;;;;;;;10.00;7.20;;;;;;;;5048408;28;8905;-82
2023/05/27 11:11:01;;;;;;;;;9.80;7.80;;;;;;;;5049019;28;8852;-82
2023/05/27 11:13:33;;;;;;;;;5.60;5.60;;;;;;;;5046341;28;8938;-83
2023/05/27 11:16:06;;;;;;;;;7.60;7.60;;;;;;;;5049566;28;8851;-83
2023/05/27 11:18:37;;;;;;;;;9.40;9.00;;;;;;;;5050550;28;9010;-82
2023/05/27 11:21:05;;;;;;;;;6.40;6.40;;;;;;;;5052388;28;8955;-84
2023/05/27 11:23:49;;;;;;;;;5.20;5.20;;;;;;;;5050885;28;8855;-82
2023/05/27 11:26:17;;;;;;;;;7.00;5.20;;;;;;;;5050623;28;8864;-84
2023/05/27 11:28:51;;;;;;;;;6.20;6.20;;;;;;;;5051433;28;8852;-81
2023/05/27 11:31:20;;;;;;;;;2.60;2.60;;;;;;;;5050986;28;8789;-88
2023/05/27 11:33:50;;;;;;;;;8.80;8.60;;;;;;;;5055971;28;8844;-93
2023/05/27 11:36:18;;;;;;;;;9.00;9.00;;;;;;;;5054308;28;8878;-83
2023/05/27 11:38:54;;;;;;;;;7.00;7.00;;;;;;;;5056319;28;8856;-84
2023/05/27 11:41:25;;;;;;;;;7.80;6.60;;;;;;;;5055454;28;8828;-86
2023/05/27 11:44:00;;;;;;;;;7.60;7.00;;;;;;;;5047223;28;8843;-87
2023/05/27 11:46:36;;;;;;;;;8.60;7.60;;;;;;;;5054363;28;8863;-86
2023/05/27 11:49:04;;;;;;;;;3.00;2.80;;;;;;;;5054451;28;8844;-85
2023/05/27 11:51:32;;;;;;;;;7.60;7.40;;;;;;;;5044132;28;8850;-83
2023/05/27 11:54:01;;;;;;;;;6.40;6.40;;;;;;;;5051116;28;8852;-85
2023/05/27 11:56:29;;;;;;;;;7.20;5.80;;;;;;;;5052624;28;8866;-88
2023/05/27 11:58:57;;;;;;;;;10.40;9.00;;;;;;;;5053190;28;8856;-84
2023/05/27 12:01:25;;;;;;;;;7.20;7.20;;;;;;;;5058925;28;8824;-85
2023/05/27 12:03:52;;;;;;;;;10.00;8.40;;;;;;;;5056918;28;8836;-87
2023/05/27 12:06:23;;;;;;;;;7.20;6.20;;;;;;;;5053214;28;8846;-90
2023/05/27 12:08:50;;;;;;;;;6.00;6.00;;;;;;;;5062399;28;8849;-89
2023/05/27 12:11:24;;;;;;;;;7.20;7.20;;;;;;;;5060736;28;8852;-85
2023/05/27 12:14:01;;;;;;;;;8.00;5.20;;;;;;;;5045883;28;8846;-86
2023/05/27 12:16:30;;;;;;;;;8.60;8.60;;;;;;;;5046812;28;8848;-86
2023/05/27 12:18:59;;;;;;;;;8.00;7.80;;;;;;;;5039855;28;9587;-87
2023/05/27 12:21:29;;;;;;;;;6.20;5.40;;;;;;;;5050702;28;8860;-85
2023/05/27 12:23:58;;;;;;;;;8.20;8.20;;;;;;;;5051204;28;8865;-86
2023/05/27 12:26:26;;;;;;;;;8.00;6.80;;;;;;;;5049983;28;8960;-86
2023/05/27 12:28:59;;;;;;;;;8.40;7.00;;;;;;;;5041141;28;8990;-86
2023/05/27 12:31:28;;;;;;;;;7.60;7.60;;;;;;;;5053346;28;8803;-86
2023/05/27 12:34:00;;;;;;;;;7.60;7.60;;;;;;;;5051660;28;8920;-86
2023/05/27 12:36:27;;;;;;;;;7.80;7.80;;;;;;;;5047996;28;8866;-86
2023/05/27 12:38:57;;;;;;;;;10.00;7.20;;;;;;;;5046929;28;8871;-87
2023/05/27 12:41:32;;;;;;;;;7.40;6.20;;;;;;;;5042124;28;8852;-86
2023/05/27 12:43:59;;;;;;;;;9.20;8.60;;;;;;;;5053695;28;8863;-85
2023/05/27 12:46:29;;;;;;;;;7.00;7.00;;;;;;;;5053022;28;8860;-88
2023/05/27 12:49:00;;;;;;;;;6.20;6.20;;;;;;;;5042483;28;8885;-85
2023/05/27 12:51:30;;;;;;;;;8.60;8.60;;;;;;;;5043468;28;8910;-86
2023/05/27 12:53:58;;;;;;;;;8.20;7.80;;;;;;;;5055847;28;8861;-85
2023/05/27 12:56:35;;;;;;;;;4.00;4.00;;;;;;;;5042202;28;8851;-86
2023/05/27 12:59:03;;;;;;;;;6.60;6.60;;;;;;;;5050782;28;8963;-85
2023/05/27 13:01:30;;;;;;;;;6.00;6.00;;;;;;;;5040512;28;8848;-85
2023/05/27 13:03:59;;;;;;;;;8.20;7.60;;;;;;;;5048725;28;8898;-86
2023/05/27 13:06:29;;;;;;;;;6.00;6.00;;;;;;;;5049828;28;8843;-85
2023/05/27 13:08:56;;;;;;;;;6.00;6.00;;;;;;;;5051672;28;8920;-87
2023/05/27 13:11:26;;;;;;;;;6.80;6.80;;;;;;;;5054067;28;8916;-85
2023/05/27 13:13:59;;;;;;;;;7.80;7.80;;;;;;;;5049020;28;9621;-85
2023/05/27 13:16:31;;;;;;;;;6.00;6.00;;;;;;;;5052130;28;8920;-84
2023/05/27 13:19:00;;;;;;;;;7.20;7.20;;;;;;;;5051026;28;8894;-84
2023/05/27 13:21:28;;;;;;;;;8.80;8.00;;;;;;;;5050171;28;8870;-84
2023/05/27 13:23:55;;;;;;;;;8.20;7.00;;;;;;;;5050452;28;8858;-84
2023/05/27 13:26:23;;;;;;;;;9.40;8.60;;;;;;;;5051170;28;8859;-85
2023/05/27 13:28:50;;;;;;;;;6.80;6.60;;;;;;;;5054394;28;8863;-85
2023/05/27 13:31:19;;;;;;;;;9.60;8.00;;;;;;;;5050481;28;8779;-85
2023/05/27 13:33:47;;;;;;;;;11.60;8.60;;;;;;;;5043023;28;8936;-86
2023/05/27 13:36:14;;;;;;;;;9.20;8.00;;;;;;;;5052331;28;8851;-85
2023/05/27 13:38:41;;;;;;;;;7.00;7.00;;;;;;;;5052506;28;8867;-87
2023/05/27 13:41:12;;;;;;;;;8.40;7.20;;;;;;;;5053809;28;8981;-85
2023/05/27 13:43:41;;;;;;;;;10.60;7.00;;;;;;;;5053458;28;8878;-85
2023/05/27 13:46:12;;;;;;;;;6.80;6.20;;;;;;;;5041010;28;8867;-85
2023/05/27 13:48:41;;;;;;;;;7.40;7.40;;;;;;;;5051431;28;8883;-85
2023/05/27 13:51:08;;;;;;;;;6.80;6.80;;;;;;;;5051347;28;8863;-84
2023/05/27 13:53:35;;;;;;;;;9.60;7.80;;;;;;;;5051277;28;9759;-83
2023/05/27 13:56:03;;;;;;;;;7.00;7.00;;;;;;;;5049769;28;8840;-86
2023/05/27 13:58:31;;;;;;;;;7.00;7.00;;;;;;;;5050236;28;8827;-85
2023/05/27 14:01:02;;;;;;;;;6.80;6.40;;;;;;;;5049455;28;8961;-84
2023/05/27 14:03:34;;;;;;;;;8.20;7.00;;;;;;;;5047698;28;8921;-85
2023/05/27 14:06:03;;;;;;;;;8.00;5.20;;;;;;;;5038126;28;8851;-85
2023/05/27 14:08:31;;;;;;;;;6.40;6.40;;;;;;;;5047656;28;9623;-86
2023/05/27 14:11:01;;;;;;;;;7.60;7.60;;;;;;;;5049486;28;8840;-87
2023/05/27 14:13:31;;;;;;;;;7.80;7.00;;;;;;;;5053560;28;8844;-87
2023/05/27 14:15:59;;;;;;;;;7.40;6.60;;;;;;;;5055231;28;8852;-85
2023/05/27 14:18:31;;;;;;;;;3.00;3.00;;;;;;;;5051992;28;8844;-85
2023/05/27 14:21:11;;;;;;;;;10.00;6.80;;;;;;;;5050927;28;8855;-87
2023/05/27 14:23:38;;;;;;;;;8.00;8.00;;;;;;;;5049405;28;9629;-85
2023/05/27 14:26:12;;;;;;;;;6.00;4.80;;;;;;;;5051044;28;8937;-85
2023/05/27 14:28:42;;;;;;;;;6.00;6.00;;;;;;;;5031047;28;8969;-87
2023/05/27 14:31:09;;;;;;;;;8.00;6.20;;;;;;;;5045735;28;8887;-86
2023/05/27 14:33:39;;;;;;;;;5.60;4.40;;;;;;;;5051889;28;8894;-87
2023/05/27 14:36:10;;;;;;;;;7.80;7.80;;;;;;;;5052042;28;8852;-87
2023/05/27 14:38:37;;;;;;;;;7.00;7.00;;;;;;;;5048666;28;8867;-87
2023/05/27 14:41:05;;;;;;;;;7.40;7.00;;;;;;;;5048405;28;8852;-86
2023/05/27 14:43:33;;;;;;;;;8.00;7.60;;;;;;;;5049671;28;9641;-87
2023/05/27 14:46:00;;;;;;;;;5.80;5.40;;;;;;;;5056648;28;8939;-84
2023/05/27 14:48:33;;;;;;;;;6.00;6.00;;;;;;;;5050101;28;8997;-84
2023/05/27 14:51:00;;;;;;;;;4.80;4.80;;;;;;;;5052390;28;8962;-85
2023/05/27 14:53:29;;;;;;;;;6.80;6.00;;;;;;;;5052666;28;8839;-84
2023/05/27 14:55:57;;;;;;;;;8.20;7.80;;;;;;;;5053292;28;8824;-85
2023/05/27 14:58:24;;;;;;;;;8.80;7.40;;;;;;;;5052828;28;8844;-84
2023/05/27 15:00:52;;;;;;;;;6.00;6.00;;;;;;;;5049385;28;8861;-84
2023/05/27 15:03:19;;;;;;;;;9.60;6.00;;;;;;;;5047259;28;8833;-84